sensor_id;sensor_type;location;lat;lon;timestamp;P1;durP1;ratioP1;P2;durP2;ratioP2
8964;SDS011;4517;49.020;12.066;2022-08-19T00:00:24;38.60;;;29.70;;
8964;SDS011;4517;49.020;12.066;2022-08-19T00:02:50;36.53;;;28.00;;
8964;SDS011;4517;49.020;12.066;2022-08-19T00:05:16;37.43;;;30.27;;
8964;SDS011;4517;49.020;12.066;2022-08-19T00:07:43;36.73;;;28.67;;
8964;SDS011;4517;49.020;12.066;2022-08-19T00:10:09;36.90;;;29.63;;
8964;SDS011;4517;49.020;12.066;2022-08-19T00:12:37;36.40;;;28.27;;
8964;SDS011;4517;49.020;12.066;2022-08-19T00:15:07;39.00;;;30.13;;
8964;SDS011;4517;49.020;12.066;2022-08-19T00:17:36;36.97;;;28.47;;
8964;SDS011;4517;49.020;12.066;2022-08-19T00:20:03;31.70;;;27.77;;
8964;SDS011;4517;49.020;12.066;2022-08-19T00:22:30;37.63;;;28.33;;
8964;SDS011;4517;49.020;12.066;2022-08-19T00:24:56;36.60;;;27.97;;
8964;SDS011;4517;49.020;12.066;2022-08-19T00:27:21;36.50;;;28.20;;
8964;SDS011;4517;49.020;12.066;2022-08-19T00:29:47;33.93;;;26.70;;
8964;SDS011;4517;49.020;12.066;2022-08-19T00:32:13;38.50;;;27.73;;
8964;SDS011;4517;49.020;12.066;2022-08-19T00:34:38;35.17;;;28.27;;
8964;SDS011;4517;49.020;12.066;2022-08-19T00:37:04;37.87;;;26.77;;
8964;SDS011;4517;49.020;12.066;2022-08-19T00:39:29;35.47;;;27.43;;
8964;SDS011;4517;49.020;12.066;2022-08-19T00:41:55;32.80;;;27.70;;
8964;SDS011;4517;49.020;12.066;2022-08-19T00:44:23;34.43;;;27.00;;
8964;SDS011;4517;49.020;12.066;2022-08-19T00:46:52;38.83;;;28.87;;
8964;SDS011;4517;49.020;12.066;2022-08-19T00:49:22;35.67;;;28.13;;
8964;SDS011;4517;49.020;12.066;2022-08-19T00:52:07;33.57;;;27.97;;
8964;SDS011;4517;49.020;12.066;2022-08-19T00:54:39;36.07;;;28.87;;
8964;SDS011;4517;49.020;12.066;2022-08-19T00:57:08;32.67;;;26.20;;
8964;SDS011;4517;49.020;12.066;2022-08-19T00:59:37;34.33;;;27.67;;
8964;SDS011;4517;49.020;12.066;2022-08-19T01:02:05;34.23;;;25.90;;
8964;SDS011;4517;49.020;12.066;2022-08-19T01:04:31;42.90;;;29.30;;
8964;SDS011;4517;49.020;12.066;2022-08-19T01:06:57;35.30;;;27.40;;
8964;SDS011;4517;49.020;12.066;2022-08-19T01:09:24;34.13;;;28.13;;
8964;SDS011;4517;49.020;12.066;2022-08-19T01:11:50;32.53;;;26.60;;
8964;SDS011;4517;49.020;12.066;2022-08-19T01:14:16;33.73;;;27.20;;
8964;SDS011;4517;49.020;12.066;2022-08-19T01:16:43;34.67;;;26.73;;
8964;SDS011;4517;49.020;12.066;2022-08-19T01:19:33;32.70;;;26.87;;
8964;SDS011;4517;49.020;12.066;2022-08-19T01:22:01;31.97;;;26.73;;
8964;SDS011;4517;49.020;12.066;2022-08-19T01:24:30;32.10;;;25.33;;
8964;SDS011;4517;49.020;12.066;2022-08-19T01:26:57;30.30;;;25.37;;
8964;SDS011;4517;49.020;12.066;2022-08-19T01:29:23;32.30;;;27.67;;
8964;SDS011;4517;49.020;12.066;2022-08-19T01:31:49;30.10;;;25.47;;
8964;SDS011;4517;49.020;12.066;2022-08-19T01:34:17;34.67;;;25.97;;
8964;SDS011;4517;49.020;12.066;2022-08-19T01:36:43;28.40;;;24.00;;
8964;SDS011;4517;49.020;12.066;2022-08-19T01:39:11;33.70;;;27.80;;
8964;SDS011;4517;49.020;12.066;2022-08-19T01:41:39;32.30;;;26.13;;
8964;SDS011;4517;49.020;12.066;2022-08-19T01:44:05;29.70;;;25.27;;
8964;SDS011;4517;49.020;12.066;2022-08-19T01:46:32;32.50;;;26.93;;
8964;SDS011;4517;49.020;12.066;2022-08-19T01:48:58;36.60;;;28.23;;
8964;SDS011;4517;49.020;12.066;2022-08-19T01:51:25;39.40;;;29.80;;
8964;SDS011;4517;49.020;12.066;2022-08-19T01:53:51;36.47;;;28.30;;
8964;SDS011;4517;49.020;12.066;2022-08-19T01:56:17;39.53;;;29.70;;
8964;SDS011;4517;49.020;12.066;2022-08-19T01:58:45;37.43;;;29.07;;
8964;SDS011;4517;49.020;12.066;2022-08-19T02:01:21;36.00;;;29.53;;
8964;SDS011;4517;49.020;12.066;2022-08-19T02:03:46;36.90;;;28.20;;
8964;SDS011;4517;49.020;12.066;2022-08-19T02:06:12;37.47;;;29.43;;
8964;SDS011;4517;49.020;12.066;2022-08-19T02:08:38;37.90;;;28.83;;
8964;SDS011;4517;49.020;12.066;2022-08-19T02:11:04;38.90;;;27.80;;
8964;SDS011;4517;49.020;12.066;2022-08-19T02:13:31;40.23;;;28.13;;
8964;SDS011;4517;49.020;12.066;2022-08-19T02:15:57;31.47;;;26.07;;
8964;SDS011;4517;49.020;12.066;2022-08-19T02:18:23;33.90;;;26.17;;
8964;SDS011;4517;49.020;12.066;2022-08-19T02:20:48;33.50;;;27.07;;
8964;SDS011;4517;49.020;12.066;2022-08-19T02:23:15;31.37;;;25.43;;
8964;SDS011;4517;49.020;12.066;2022-08-19T02:25:42;32.10;;;26.03;;
8964;SDS011;4517;49.020;12.066;2022-08-19T02:28:10;35.90;;;27.27;;
8964;SDS011;4517;49.020;12.066;2022-08-19T02:30:36;31.47;;;26.80;;
8964;SDS011;4517;49.020;12.066;2022-08-19T02:33:03;32.27;;;26.37;;
8964;SDS011;4517;49.020;12.066;2022-08-19T02:35:29;30.47;;;25.30;;
8964;SDS011;4517;49.020;12.066;2022-08-19T02:37:55;31.20;;;24.80;;
8964;SDS011;4517;49.020;12.066;2022-08-19T02:40:39;29.63;;;23.33;;
8964;SDS011;4517;49.020;12.066;2022-08-19T02:43:06;35.30;;;26.90;;
8964;SDS011;4517;49.020;12.066;2022-08-19T02:45:37;30.43;;;23.23;;
8964;SDS011;4517;49.020;12.066;2022-08-19T02:48:04;29.60;;;24.53;;
8964;SDS011;4517;49.020;12.066;2022-08-19T02:50:30;27.97;;;22.73;;
8964;SDS011;4517;49.020;12.066;2022-08-19T02:52:56;29.73;;;24.53;;
8964;SDS011;4517;49.020;12.066;2022-08-19T02:55:23;31.27;;;24.30;;
8964;SDS011;4517;49.020;12.066;2022-08-19T02:57:49;29.40;;;23.43;;
8964;SDS011;4517;49.020;12.066;2022-08-19T03:00:15;25.27;;;22.43;;
8964;SDS011;4517;49.020;12.066;2022-08-19T03:02:41;31.30;;;24.47;;
8964;SDS011;4517;49.020;12.066;2022-08-19T03:05:08;31.90;;;24.80;;
8964;SDS011;4517;49.020;12.066;2022-08-19T03:07:35;27.73;;;23.10;;
8964;SDS011;4517;49.020;12.066;2022-08-19T03:10:02;30.70;;;24.00;;
8964;SDS011;4517;49.020;12.066;2022-08-19T03:12:28;33.83;;;26.27;;
8964;SDS011;4517;49.020;12.066;2022-08-19T03:14:54;29.90;;;24.57;;
8964;SDS011;4517;49.020;12.066;2022-08-19T03:17:20;29.13;;;25.20;;
8964;SDS011;4517;49.020;12.066;2022-08-19T03:19:45;27.07;;;23.37;;
8964;SDS011;4517;49.020;12.066;2022-08-19T03:22:11;29.40;;;23.63;;
8964;SDS011;4517;49.020;12.066;2022-08-19T03:24:37;27.30;;;24.37;;
8964;SDS011;4517;49.020;12.066;2022-08-19T03:27:03;27.57;;;22.33;;
8964;SDS011;4517;49.020;12.066;2022-08-19T03:29:30;25.80;;;22.40;;
8964;SDS011;4517;49.020;12.066;2022-08-19T03:31:56;27.50;;;21.83;;
8964;SDS011;4517;49.020;12.066;2022-08-19T03:34:28;25.77;;;21.93;;
8964;SDS011;4517;49.020;12.066;2022-08-19T03:36:56;26.80;;;23.20;;
8964;SDS011;4517;49.020;12.066;2022-08-19T03:39:23;26.10;;;21.13;;
8964;SDS011;4517;49.020;12.066;2022-08-19T03:41:50;27.70;;;22.70;;
8964;SDS011;4517;49.020;12.066;2022-08-19T03:44:21;26.97;;;22.50;;
8964;SDS011;4517;49.020;12.066;2022-08-19T03:46:48;27.17;;;23.50;;
8964;SDS011;4517;49.020;12.066;2022-08-19T03:49:21;26.07;;;22.73;;
8964;SDS011;4517;49.020;12.066;2022-08-19T03:51:48;30.23;;;23.20;;
8964;SDS011;4517;49.020;12.066;2022-08-19T03:54:15;27.00;;;22.13;;
8964;SDS011;4517;49.020;12.066;2022-08-19T03:56:44;28.93;;;22.70;;
8964;SDS011;4517;49.020;12.066;2022-08-19T03:59:13;24.77;;;20.67;;
8964;SDS011;4517;49.020;12.066;2022-08-19T04:01:41;30.70;;;23.90;;
8964;SDS011;4517;49.020;12.066;2022-08-19T04:04:06;26.27;;;23.10;;
8964;SDS011;4517;49.020;12.066;2022-08-19T04:06:33;26.87;;;22.57;;
8964;SDS011;4517;49.020;12.066;2022-08-19T04:09:03;25.20;;;21.50;;
8964;SDS011;4517;49.020;12.066;2022-08-19T04:11:32;32.53;;;22.03;;
8964;SDS011;4517;49.020;12.066;2022-08-19T04:14:02;28.60;;;20.33;;
8964;SDS011;4517;49.020;12.066;2022-08-19T04:16:28;30.03;;;22.10;;
8964;SDS011;4517;49.020;12.066;2022-08-19T04:18:54;30.93;;;22.30;;
8964;SDS011;4517;49.020;12.066;2022-08-19T04:21:22;25.77;;;21.77;;
8964;SDS011;4517;49.020;12.066;2022-08-19T04:23:49;27.83;;;20.90;;
8964;SDS011;4517;49.020;12.066;2022-08-19T04:26:16;27.93;;;23.93;;
8964;SDS011;4517;49.020;12.066;2022-08-19T04:28:44;27.50;;;22.63;;
8964;SDS011;4517;49.020;12.066;2022-08-19T04:31:14;27.60;;;21.63;;
8964;SDS011;4517;49.020;12.066;2022-08-19T04:33:42;27.47;;;22.17;;
8964;SDS011;4517;49.020;12.066;2022-08-19T04:36:07;24.50;;;21.53;;
8964;SDS011;4517;49.020;12.066;2022-08-19T04:38:35;25.70;;;21.50;;
8964;SDS011;4517;49.020;12.066;2022-08-19T04:41:01;28.90;;;22.93;;
8964;SDS011;4517;49.020;12.066;2022-08-19T04:43:46;31.57;;;25.00;;
8964;SDS011;4517;49.020;12.066;2022-08-19T04:46:15;27.80;;;23.53;;
8964;SDS011;4517;49.020;12.066;2022-08-19T04:48:42;32.57;;;26.00;;
8964;SDS011;4517;49.020;12.066;2022-08-19T04:51:09;27.30;;;23.13;;
8964;SDS011;4517;49.020;12.066;2022-08-19T04:53:38;28.10;;;24.83;;
8964;SDS011;4517;49.020;12.066;2022-08-19T04:56:06;28.30;;;22.73;;
8964;SDS011;4517;49.020;12.066;2022-08-19T04:58:34;23.77;;;21.03;;
8964;SDS011;4517;49.020;12.066;2022-08-19T05:01:01;27.10;;;23.23;;
8964;SDS011;4517;49.020;12.066;2022-08-19T05:03:26;26.43;;;22.03;;
8964;SDS011;4517;49.020;12.066;2022-08-19T05:05:52;27.23;;;23.10;;
8964;SDS011;4517;49.020;12.066;2022-08-19T05:08:19;27.07;;;21.97;;
8964;SDS011;4517;49.020;12.066;2022-08-19T05:10:47;26.83;;;23.33;;
8964;SDS011;4517;49.020;12.066;2022-08-19T05:13:14;24.97;;;20.90;;
8964;SDS011;4517;49.020;12.066;2022-08-19T05:15:42;28.23;;;22.43;;
8964;SDS011;4517;49.020;12.066;2022-08-19T05:18:08;27.33;;;23.20;;
8964;SDS011;4517;49.020;12.066;2022-08-19T05:20:52;27.80;;;22.30;;
8964;SDS011;4517;49.020;12.066;2022-08-19T05:23:37;21.97;;;19.00;;
8964;SDS011;4517;49.020;12.066;2022-08-19T05:26:03;21.73;;;19.40;;
8964;SDS011;4517;49.020;12.066;2022-08-19T05:28:29;25.50;;;19.27;;
8964;SDS011;4517;49.020;12.066;2022-08-19T05:30:54;23.37;;;19.77;;
8964;SDS011;4517;49.020;12.066;2022-08-19T05:33:20;23.27;;;20.13;;
8964;SDS011;4517;49.020;12.066;2022-08-19T05:35:47;22.40;;;19.83;;
8964;SDS011;4517;49.020;12.066;2022-08-19T05:38:14;29.10;;;20.70;;
8964;SDS011;4517;49.020;12.066;2022-08-19T05:40:44;24.00;;;20.33;;
8964;SDS011;4517;49.020;12.066;2022-08-19T05:43:12;23.07;;;18.87;;
8964;SDS011;4517;49.020;12.066;2022-08-19T05:45:40;23.50;;;20.57;;
8964;SDS011;4517;49.020;12.066;2022-08-19T05:48:07;22.57;;;19.07;;
8964;SDS011;4517;49.020;12.066;2022-08-19T05:50:36;23.60;;;20.17;;
8964;SDS011;4517;49.020;12.066;2022-08-19T05:53:02;21.87;;;18.93;;
8964;SDS011;4517;49.020;12.066;2022-08-19T05:55:28;23.73;;;21.23;;
8964;SDS011;4517;49.020;12.066;2022-08-19T05:57:54;25.67;;;21.27;;
8964;SDS011;4517;49.020;12.066;2022-08-19T06:00:20;23.27;;;20.60;;
8964;SDS011;4517;49.020;12.066;2022-08-19T06:02:45;26.87;;;21.10;;
8964;SDS011;4517;49.020;12.066;2022-08-19T06:05:11;23.07;;;19.10;;
8964;SDS011;4517;49.020;12.066;2022-08-19T06:07:38;22.30;;;19.00;;
8964;SDS011;4517;49.020;12.066;2022-08-19T06:10:05;22.73;;;20.13;;
8964;SDS011;4517;49.020;12.066;2022-08-19T06:12:33;22.47;;;20.10;;
8964;SDS011;4517;49.020;12.066;2022-08-19T06:15:01;24.73;;;19.77;;
8964;SDS011;4517;49.020;12.066;2022-08-19T06:17:29;22.20;;;18.70;;
8964;SDS011;4517;49.020;12.066;2022-08-19T06:19:55;27.80;;;19.03;;
8964;SDS011;4517;49.020;12.066;2022-08-19T06:22:21;23.90;;;20.33;;
8964;SDS011;4517;49.020;12.066;2022-08-19T06:24:46;23.30;;;18.87;;
8964;SDS011;4517;49.020;12.066;2022-08-19T06:27:12;27.97;;;19.17;;
8964;SDS011;4517;49.020;12.066;2022-08-19T06:29:38;22.97;;;19.30;;
8964;SDS011;4517;49.020;12.066;2022-08-19T06:32:03;24.23;;;20.17;;
8964;SDS011;4517;49.020;12.066;2022-08-19T06:34:30;25.53;;;20.20;;
8964;SDS011;4517;49.020;12.066;2022-08-19T06:36:58;28.83;;;20.03;;
8964;SDS011;4517;49.020;12.066;2022-08-19T06:39:27;29.80;;;20.10;;
8964;SDS011;4517;49.020;12.066;2022-08-19T06:41:59;25.00;;;21.10;;
8964;SDS011;4517;49.020;12.066;2022-08-19T06:44:27;26.43;;;21.77;;
8964;SDS011;4517;49.020;12.066;2022-08-19T06:46:54;25.00;;;21.07;;
8964;SDS011;4517;49.020;12.066;2022-08-19T06:49:20;25.30;;;21.50;;
8964;SDS011;4517;49.020;12.066;2022-08-19T06:51:48;27.17;;;22.80;;
8964;SDS011;4517;49.020;12.066;2022-08-19T06:54:15;27.10;;;22.30;;
8964;SDS011;4517;49.020;12.066;2022-08-19T06:56:42;27.63;;;22.30;;
8964;SDS011;4517;49.020;12.066;2022-08-19T06:59:11;28.37;;;22.57;;
8964;SDS011;4517;49.020;12.066;2022-08-19T07:01:40;30.50;;;24.33;;
8964;SDS011;4517;49.020;12.066;2022-08-19T07:04:08;29.67;;;24.53;;
8964;SDS011;4517;49.020;12.066;2022-08-19T07:06:35;30.77;;;23.20;;
8964;SDS011;4517;49.020;12.066;2022-08-19T07:09:02;29.00;;;23.67;;
8964;SDS011;4517;49.020;12.066;2022-08-19T07:11:29;34.47;;;25.97;;
8964;SDS011;4517;49.020;12.066;2022-08-19T07:13:55;31.17;;;24.37;;
8964;SDS011;4517;49.020;12.066;2022-08-19T07:16:21;36.50;;;27.30;;
8964;SDS011;4517;49.020;12.066;2022-08-19T07:18:48;32.30;;;24.77;;
8964;SDS011;4517;49.020;12.066;2022-08-19T07:21:20;33.97;;;25.77;;
8964;SDS011;4517;49.020;12.066;2022-08-19T07:23:49;29.23;;;23.00;;
8964;SDS011;4517;49.020;12.066;2022-08-19T07:26:19;29.03;;;23.33;;
8964;SDS011;4517;49.020;12.066;2022-08-19T07:28:53;28.50;;;23.17;;
8964;SDS011;4517;49.020;12.066;2022-08-19T07:31:20;26.73;;;21.20;;
8964;SDS011;4517;49.020;12.066;2022-08-19T07:33:48;30.40;;;21.70;;
8964;SDS011;4517;49.020;12.066;2022-08-19T07:36:16;27.30;;;21.67;;
8964;SDS011;4517;49.020;12.066;2022-08-19T07:38:46;25.73;;;21.30;;
8964;SDS011;4517;49.020;12.066;2022-08-19T07:41:13;31.20;;;22.80;;
8964;SDS011;4517;49.020;12.066;2022-08-19T07:43:41;23.20;;;19.80;;
8964;SDS011;4517;49.020;12.066;2022-08-19T07:46:08;22.10;;;19.70;;
8964;SDS011;4517;49.020;12.066;2022-08-19T07:48:34;25.00;;;20.00;;
8964;SDS011;4517;49.020;12.066;2022-08-19T07:51:01;21.97;;;19.57;;
8964;SDS011;4517;49.020;12.066;2022-08-19T07:53:29;23.17;;;20.33;;
8964;SDS011;4517;49.020;12.066;2022-08-19T07:55:55;24.10;;;21.23;;
8964;SDS011;4517;49.020;12.066;2022-08-19T07:58:28;26.40;;;22.50;;
8964;SDS011;4517;49.020;12.066;2022-08-19T08:00:55;27.10;;;23.57;;
8964;SDS011;4517;49.020;12.066;2022-08-19T08:03:21;23.50;;;20.37;;
8964;SDS011;4517;49.020;12.066;2022-08-19T08:06:10;23.73;;;21.23;;
8964;SDS011;4517;49.020;12.066;2022-08-19T08:08:56;26.17;;;21.67;;
8964;SDS011;4517;49.020;12.066;2022-08-19T08:11:47;24.03;;;21.40;;
8964;SDS011;4517;49.020;12.066;2022-08-19T08:14:50;28.80;;;20.63;;
8964;SDS011;4517;49.020;12.066;2022-08-19T08:17:11;24.23;;;20.27;;
8964;SDS011;4517;49.020;12.066;2022-08-19T08:19:38;24.67;;;20.20;;
8964;SDS011;4517;49.020;12.066;2022-08-19T08:22:06;23.67;;;21.20;;
8964;SDS011;4517;49.020;12.066;2022-08-19T08:24:33;25.07;;;21.80;;
8964;SDS011;4517;49.020;12.066;2022-08-19T08:27:01;22.27;;;19.87;;
8964;SDS011;4517;49.020;12.066;2022-08-19T08:29:28;22.33;;;20.03;;
8964;SDS011;4517;49.020;12.066;2022-08-19T08:31:55;23.93;;;21.37;;
8964;SDS011;4517;49.020;12.066;2022-08-19T08:34:24;26.03;;;19.63;;
8964;SDS011;4517;49.020;12.066;2022-08-19T08:36:50;24.40;;;21.70;;
8964;SDS011;4517;49.020;12.066;2022-08-19T08:39:18;25.93;;;20.50;;
8964;SDS011;4517;49.020;12.066;2022-08-19T08:41:53;24.27;;;21.73;;
8964;SDS011;4517;49.020;12.066;2022-08-19T08:44:50;24.13;;;20.70;;
8964;SDS011;4517;49.020;12.066;2022-08-19T08:47:24;24.60;;;21.73;;
8964;SDS011;4517;49.020;12.066;2022-08-19T08:49:53;22.63;;;20.33;;
8964;SDS011;4517;49.020;12.066;2022-08-19T08:52:31;23.27;;;20.83;;
8964;SDS011;4517;49.020;12.066;2022-08-19T08:55:11;22.80;;;20.40;;
8964;SDS011;4517;49.020;12.066;2022-08-19T09:02:56;24.57;;;22.17;;
8964;SDS011;4517;49.020;12.066;2022-08-19T09:05:23;23.80;;;21.30;;
8964;SDS011;4517;49.020;12.066;2022-08-19T09:10:57;23.47;;;20.97;;
8964;SDS011;4517;49.020;12.066;2022-08-19T09:16:50;22.67;;;20.57;;
8964;SDS011;4517;49.020;12.066;2022-08-19T09:19:16;22.17;;;20.00;;
8964;SDS011;4517;49.020;12.066;2022-08-19T09:21:42;22.07;;;19.87;;
8964;SDS011;4517;49.020;12.066;2022-08-19T09:24:08;21.97;;;19.87;;
8964;SDS011;4517;49.020;12.066;2022-08-19T09:26:34;23.37;;;21.07;;
8964;SDS011;4517;49.020;12.066;2022-08-19T09:28:59;22.47;;;20.07;;
8964;SDS011;4517;49.020;12.066;2022-08-19T09:31:28;24.10;;;20.00;;
8964;SDS011;4517;49.020;12.066;2022-08-19T09:33:55;25.33;;;21.17;;
8964;SDS011;4517;49.020;12.066;2022-08-19T09:36:24;22.53;;;20.13;;
8964;SDS011;4517;49.020;12.066;2022-08-19T09:38:51;22.30;;;20.00;;
8964;SDS011;4517;49.020;12.066;2022-08-19T09:41:18;20.00;;;18.10;;
8964;SDS011;4517;49.020;12.066;2022-08-19T09:43:46;21.17;;;19.10;;
8964;SDS011;4517;49.020;12.066;2022-08-19T09:46:14;20.93;;;18.57;;
8964;SDS011;4517;49.020;12.066;2022-08-19T09:48:41;19.57;;;17.40;;
8964;SDS011;4517;49.020;12.066;2022-08-19T09:53:34;21.27;;;19.20;;
8964;SDS011;4517;49.020;12.066;2022-08-19T09:56:01;21.97;;;19.70;;
8964;SDS011;4517;49.020;12.066;2022-08-19T09:58:27;20.43;;;18.40;;
8964;SDS011;4517;49.020;12.066;2022-08-19T10:00:55;20.40;;;18.30;;
8964;SDS011;4517;49.020;12.066;2022-08-19T10:03:22;21.20;;;19.10;;
8964;SDS011;4517;49.020;12.066;2022-08-19T10:05:48;21.87;;;19.63;;
8964;SDS011;4517;49.020;12.066;2022-08-19T10:08:15;21.73;;;19.63;;
8964;SDS011;4517;49.020;12.066;2022-08-19T10:10:42;18.07;;;16.27;;
8964;SDS011;4517;49.020;12.066;2022-08-19T10:13:08;20.30;;;18.37;;
8964;SDS011;4517;49.020;12.066;2022-08-19T10:15:34;18.53;;;16.77;;
8964;SDS011;4517;49.020;12.066;2022-08-19T10:18:00;20.00;;;18.10;;
8964;SDS011;4517;49.020;12.066;2022-08-19T10:20:26;19.37;;;17.37;;
8964;SDS011;4517;49.020;12.066;2022-08-19T10:22:52;20.13;;;18.13;;
8964;SDS011;4517;49.020;12.066;2022-08-19T10:25:17;19.30;;;17.33;;
8964;SDS011;4517;49.020;12.066;2022-08-19T10:27:44;23.20;;;17.63;;
8964;SDS011;4517;49.020;12.066;2022-08-19T10:30:09;24.43;;;16.27;;
8964;SDS011;4517;49.020;12.066;2022-08-19T10:32:35;19.37;;;17.37;;
8964;SDS011;4517;49.020;12.066;2022-08-19T10:35:03;18.20;;;16.37;;
8964;SDS011;4517;49.020;12.066;2022-08-19T10:37:33;18.00;;;16.40;;
8964;SDS011;4517;49.020;12.066;2022-08-19T10:39:59;20.03;;;18.10;;
8964;SDS011;4517;49.020;12.066;2022-08-19T10:42:26;21.47;;;19.27;;
8964;SDS011;4517;49.020;12.066;2022-08-19T10:44:52;20.60;;;18.67;;
8964;SDS011;4517;49.020;12.066;2022-08-19T10:47:17;26.10;;;19.70;;
8964;SDS011;4517;49.020;12.066;2022-08-19T10:49:43;21.50;;;19.40;;
8964;SDS011;4517;49.020;12.066;2022-08-19T10:52:28;22.33;;;20.27;;
8964;SDS011;4517;49.020;12.066;2022-08-19T10:55:00;23.30;;;20.57;;
8964;SDS011;4517;49.020;12.066;2022-08-19T10:57:45;21.40;;;19.20;;
8964;SDS011;4517;49.020;12.066;2022-08-19T11:00:10;23.60;;;21.20;;
8964;SDS011;4517;49.020;12.066;2022-08-19T11:02:36;22.87;;;20.67;;
8964;SDS011;4517;49.020;12.066;2022-08-19T11:05:03;23.43;;;20.90;;
8964;SDS011;4517;49.020;12.066;2022-08-19T11:07:29;23.00;;;20.70;;
8964;SDS011;4517;49.020;12.066;2022-08-19T11:09:54;22.63;;;20.37;;
8964;SDS011;4517;49.020;12.066;2022-08-19T11:12:20;22.00;;;20.00;;
8964;SDS011;4517;49.020;12.066;2022-08-19T11:14:46;24.10;;;22.00;;
8964;SDS011;4517;49.020;12.066;2022-08-19T11:17:14;24.10;;;21.77;;
8964;SDS011;4517;49.020;12.066;2022-08-19T11:19:40;24.23;;;21.20;;
8964;SDS011;4517;49.020;12.066;2022-08-19T11:22:07;22.60;;;20.40;;
8964;SDS011;4517;49.020;12.066;2022-08-19T11:24:35;28.47;;;20.43;;
8964;SDS011;4517;49.020;12.066;2022-08-19T11:27:08;25.30;;;19.40;;
8964;SDS011;4517;49.020;12.066;2022-08-19T11:29:35;22.67;;;20.43;;
8964;SDS011;4517;49.020;12.066;2022-08-19T11:32:05;23.20;;;20.40;;
8964;SDS011;4517;49.020;12.066;2022-08-19T11:34:33;21.60;;;19.43;;
8964;SDS011;4517;49.020;12.066;2022-08-19T11:37:00;21.77;;;19.77;;
8964;SDS011;4517;49.020;12.066;2022-08-19T11:39:28;23.00;;;20.90;;
8964;SDS011;4517;49.020;12.066;2022-08-19T11:41:56;22.47;;;20.27;;
8964;SDS011;4517;49.020;12.066;2022-08-19T11:44:23;22.43;;;20.20;;
8964;SDS011;4517;49.020;12.066;2022-08-19T11:46:48;23.40;;;21.30;;
8964;SDS011;4517;49.020;12.066;2022-08-19T11:49:15;27.30;;;24.60;;
8964;SDS011;4517;49.020;12.066;2022-08-19T11:51:43;28.83;;;25.93;;
8964;SDS011;4517;49.020;12.066;2022-08-19T11:54:10;28.23;;;25.63;;
8964;SDS011;4517;49.020;12.066;2022-08-19T11:56:37;30.60;;;27.53;;
8964;SDS011;4517;49.020;12.066;2022-08-19T11:59:03;29.53;;;26.83;;
8964;SDS011;4517;49.020;12.066;2022-08-19T12:01:29;31.67;;;28.60;;
8964;SDS011;4517;49.020;12.066;2022-08-19T12:03:56;31.30;;;28.33;;
8964;SDS011;4517;49.020;12.066;2022-08-19T12:06:24;29.93;;;26.43;;
8964;SDS011;4517;49.020;12.066;2022-08-19T12:08:57;29.27;;;26.17;;
8964;SDS011;4517;49.020;12.066;2022-08-19T12:11:24;31.50;;;26.80;;
8964;SDS011;4517;49.020;12.066;2022-08-19T12:13:50;33.20;;;28.07;;
8964;SDS011;4517;49.020;12.066;2022-08-19T12:16:17;31.23;;;27.30;;
8964;SDS011;4517;49.020;12.066;2022-08-19T12:18:44;28.33;;;25.33;;
8964;SDS011;4517;49.020;12.066;2022-08-19T12:21:14;33.03;;;29.43;;
8964;SDS011;4517;49.020;12.066;2022-08-19T12:23:41;30.73;;;27.43;;
8964;SDS011;4517;49.020;12.066;2022-08-19T12:26:10;36.43;;;28.63;;
8964;SDS011;4517;49.020;12.066;2022-08-19T12:28:36;34.40;;;27.77;;
8964;SDS011;4517;49.020;12.066;2022-08-19T12:31:03;30.50;;;27.40;;
8964;SDS011;4517;49.020;12.066;2022-08-19T12:33:29;33.17;;;28.80;;
8964;SDS011;4517;49.020;12.066;2022-08-19T12:36:00;39.80;;;29.67;;
8964;SDS011;4517;49.020;12.066;2022-08-19T12:38:27;36.63;;;28.07;;
8964;SDS011;4517;49.020;12.066;2022-08-19T12:40:53;37.40;;;28.50;;
8964;SDS011;4517;49.020;12.066;2022-08-19T12:43:19;34.93;;;28.13;;
8964;SDS011;4517;49.020;12.066;2022-08-19T12:45:45;43.07;;;30.90;;
8964;SDS011;4517;49.020;12.066;2022-08-19T12:48:11;40.57;;;31.23;;
8964;SDS011;4517;49.020;12.066;2022-08-19T12:50:41;34.27;;;30.70;;
8964;SDS011;4517;49.020;12.066;2022-08-19T12:53:07;39.00;;;31.20;;
8964;SDS011;4517;49.020;12.066;2022-08-19T12:55:33;37.13;;;29.20;;
8964;SDS011;4517;49.020;12.066;2022-08-19T12:57:59;34.50;;;28.47;;
8964;SDS011;4517;49.020;12.066;2022-08-19T13:00:26;34.30;;;29.00;;
8964;SDS011;4517;49.020;12.066;2022-08-19T13:02:53;33.70;;;29.40;;
8964;SDS011;4517;49.020;12.066;2022-08-19T13:05:20;30.50;;;27.30;;
8964;SDS011;4517;49.020;12.066;2022-08-19T13:07:48;34.47;;;29.33;;
8964;SDS011;4517;49.020;12.066;2022-08-19T13:10:17;31.77;;;27.43;;
8964;SDS011;4517;49.020;12.066;2022-08-19T13:12:45;29.27;;;26.13;;
8964;SDS011;4517;49.020;12.066;2022-08-19T13:15:12;27.70;;;24.80;;
8964;SDS011;4517;49.020;12.066;2022-08-19T13:17:39;26.97;;;24.13;;
8964;SDS011;4517;49.020;12.066;2022-08-19T13:20:05;27.97;;;23.33;;
8964;SDS011;4517;49.020;12.066;2022-08-19T13:22:33;31.73;;;24.00;;
8964;SDS011;4517;49.020;12.066;2022-08-19T13:25:00;29.13;;;23.63;;
8964;SDS011;4517;49.020;12.066;2022-08-19T13:27:26;26.30;;;22.53;;
8964;SDS011;4517;49.020;12.066;2022-08-19T13:29:52;25.20;;;20.97;;
8964;SDS011;4517;49.020;12.066;2022-08-19T13:32:36;24.43;;;21.70;;
8964;SDS011;4517;49.020;12.066;2022-08-19T13:35:20;31.57;;;24.50;;
8964;SDS011;4517;49.020;12.066;2022-08-19T13:37:46;24.30;;;19.73;;
8964;SDS011;4517;49.020;12.066;2022-08-19T13:42:41;25.90;;;19.73;;
8964;SDS011;4517;49.020;12.066;2022-08-19T13:45:09;22.20;;;19.43;;
8964;SDS011;4517;49.020;12.066;2022-08-19T13:47:35;23.20;;;18.37;;
8964;SDS011;4517;49.020;12.066;2022-08-19T13:50:07;21.90;;;19.50;;
8964;SDS011;4517;49.020;12.066;2022-08-19T13:52:34;23.70;;;18.20;;
8964;SDS011;4517;49.020;12.066;2022-08-19T13:55:00;23.00;;;18.80;;
8964;SDS011;4517;49.020;12.066;2022-08-19T13:57:25;21.57;;;19.37;;
8964;SDS011;4517;49.020;12.066;2022-08-19T13:59:51;21.60;;;19.30;;
8964;SDS011;4517;49.020;12.066;2022-08-19T14:02:17;25.27;;;22.80;;
8964;SDS011;4517;49.020;12.066;2022-08-19T14:04:43;24.07;;;20.07;;
8964;SDS011;4517;49.020;12.066;2022-08-19T14:07:09;20.50;;;18.37;;
8964;SDS011;4517;49.020;12.066;2022-08-19T14:09:35;22.23;;;19.90;;
8964;SDS011;4517;49.020;12.066;2022-08-19T14:12:00;21.20;;;19.03;;
8964;SDS011;4517;49.020;12.066;2022-08-19T14:14:26;21.23;;;19.27;;
8964;SDS011;4517;49.020;12.066;2022-08-19T14:16:51;22.53;;;20.33;;
8964;SDS011;4517;49.020;12.066;2022-08-19T14:19:17;21.43;;;19.30;;
8964;SDS011;4517;49.020;12.066;2022-08-19T14:21:44;21.27;;;18.87;;
8964;SDS011;4517;49.020;12.066;2022-08-19T14:24:09;20.90;;;18.80;;
8964;SDS011;4517;49.020;12.066;2022-08-19T14:26:35;21.50;;;17.90;;
8964;SDS011;4517;49.020;12.066;2022-08-19T14:29:01;19.13;;;17.20;;
8964;SDS011;4517;49.020;12.066;2022-08-19T14:31:26;20.90;;;18.80;;
8964;SDS011;4517;49.020;12.066;2022-08-19T14:33:52;20.80;;;18.80;;
8964;SDS011;4517;49.020;12.066;2022-08-19T14:36:18;20.83;;;18.73;;
8964;SDS011;4517;49.020;12.066;2022-08-19T14:38:45;26.10;;;23.70;;
8964;SDS011;4517;49.020;12.066;2022-08-19T14:41:15;21.77;;;18.10;;
8964;SDS011;4517;49.020;12.066;2022-08-19T14:43:44;19.37;;;17.37;;
8964;SDS011;4517;49.020;12.066;2022-08-19T14:46:15;19.93;;;17.90;;
8964;SDS011;4517;49.020;12.066;2022-08-19T14:48:42;20.87;;;18.80;;
8964;SDS011;4517;49.020;12.066;2022-08-19T14:51:08;19.57;;;17.67;;
8964;SDS011;4517;49.020;12.066;2022-08-19T14:53:34;23.53;;;16.40;;